createdAt,value
2023-03-06T06:03:35.688Z,0.50
2023-03-06T06:04:36.617Z,0.50
2023-03-06T06:05:35.647Z,0.50
2023-03-06T06:06:36.686Z,0.50
2023-03-06T06:07:35.723Z,0.50
2023-03-06T06:08:36.748Z,0.50
2023-03-06T06:09:36.775Z,0.34
2023-03-06T06:10:36.777Z,0.34
2023-03-06T06:11:36.805Z,0.34
2023-03-06T06:12:36.812Z,0.34
2023-03-06T06:13:36.799Z,0.34
2023-03-06T06:14:36.790Z,0.34
2023-03-06T06:15:36.846Z,0.34
2023-03-06T06:16:36.774Z,0.34
2023-03-06T06:17:36.760Z,0.34
2023-03-06T06:18:38.685Z,0.34
2023-03-06T06:19:36.789Z,0.34
2023-03-06T06:20:36.762Z,0.34
2023-03-06T06:21:36.753Z,0.34
2023-03-06T06:22:36.744Z,0.34
2023-03-06T06:23:36.731Z,0.34
2023-03-06T06:24:36.720Z,0.34
2023-03-06T06:25:36.717Z,0.34
2023-03-06T06:26:36.701Z,0.34
2023-03-06T06:27:36.689Z,0.34
2023-03-06T06:28:36.730Z,0.34
2023-03-06T06:29:36.683Z,0.34
2023-03-06T06:30:36.678Z,0.34
2023-03-06T06:31:36.665Z,0.34
2023-03-06T06:32:35.732Z,0.34
2023-03-06T06:33:36.650Z,0.34
2023-03-06T06:34:36.648Z,0.34
2023-03-06T06:35:36.756Z,0.34
2023-03-06T06:36:35.643Z,0.34
2023-03-06T06:37:36.674Z,0.34
2023-03-06T06:38:36.620Z,0.34
2023-03-06T06:39:35.626Z,0.34
2023-03-06T06:40:36.602Z,0.34
2023-03-06T06:41:54.858Z,0.34
2023-03-06T06:42:39.818Z,0.34
2023-03-06T06:43:36.596Z,0.34
2023-03-06T06:44:36.612Z,0.34
2023-03-06T06:45:35.564Z,0.34
2023-03-06T06:47:36.556Z,0.34
2023-03-06T06:48:36.554Z,0.34
2023-03-06T06:49:36.577Z,0.34
2023-03-06T06:50:36.554Z,0.34
2023-03-06T06:51:36.568Z,0.34
2023-03-06T06:52:36.538Z,0.34
2023-03-06T06:53:36.517Z,0.34
2023-03-06T06:54:36.509Z,0.34
2023-03-06T06:55:36.498Z,0.34
2023-03-06T06:56:36.498Z,0.34
2023-03-06T06:57:36.500Z,0.34
2023-03-06T06:58:36.502Z,0.34
2023-03-06T06:59:36.471Z,0.34
2023-03-06T07:00:36.466Z,0.35
2023-03-06T07:01:36.539Z,0.43
2023-03-06T07:02:36.496Z,0.50
2023-03-06T07:03:36.486Z,0.50
2023-03-06T07:04:36.472Z,0.50
2023-03-06T07:05:36.443Z,0.49
2023-03-06T07:06:35.430Z,0.52
2023-03-06T07:07:36.566Z,0.50
2023-03-06T07:08:35.406Z,0.57
2023-03-06T07:09:36.388Z,0.49
2023-03-06T07:10:36.398Z,0.51
2023-03-06T07:11:36.404Z,0.50
2023-03-06T07:12:36.398Z,0.50
2023-03-06T07:13:36.377Z,0.52
2023-03-06T07:14:36.363Z,0.52
2023-03-06T07:15:36.410Z,0.51
2023-03-06T07:16:36.336Z,0.52
2023-03-06T07:17:36.356Z,0.50
2023-03-06T07:18:35.332Z,0.50
2023-03-06T07:19:37.970Z,0.51
2023-03-06T07:20:35.311Z,0.52
2023-03-06T07:21:36.330Z,0.51
2023-03-06T07:22:49.836Z,0.53
2023-03-06T07:23:36.310Z,0.53
2023-03-06T07:24:36.296Z,0.52
2023-03-06T07:25:36.275Z,0.52
2023-03-06T07:26:36.304Z,0.50
2023-03-06T07:27:36.328Z,0.48
2023-03-06T07:28:51.305Z,0.50
2023-03-06T07:29:36.244Z,0.50
2023-03-06T07:30:36.256Z,0.50
2023-03-06T07:31:35.289Z,0.51
2023-03-06T07:32:36.273Z,0.53
2023-03-06T07:33:36.238Z,0.56
2023-03-06T07:34:36.255Z,0.57
2023-03-06T07:35:36.252Z,0.58
2023-03-06T07:36:36.202Z,0.58
2023-03-06T07:37:36.213Z,0.61
2023-03-06T07:38:36.186Z,0.63
2023-03-06T07:39:36.222Z,0.64
2023-03-06T07:40:36.182Z,0.64
2023-03-06T07:41:35.185Z,0.65
2023-03-06T07:42:35.162Z,0.66
2023-03-06T07:43:36.166Z,0.67
2023-03-06T07:44:36.198Z,0.68
2023-03-06T07:45:35.141Z,0.68
2023-03-06T07:46:36.196Z,0.71
2023-03-06T07:47:36.149Z,0.73
2023-03-06T07:48:36.138Z,0.75
2023-03-06T07:49:36.125Z,0.77
2023-03-06T07:50:35.128Z,0.77
2023-03-06T07:51:35.125Z,0.79
2023-03-06T07:52:35.116Z,0.82
2023-03-06T07:53:36.521Z,0.84
2023-03-06T07:54:36.091Z,0.83
2023-03-06T07:55:37.033Z,0.86
2023-03-06T07:56:36.068Z,0.86
2023-03-06T07:57:36.079Z,0.87
2023-03-06T07:58:36.571Z,0.87
2023-03-06T07:59:36.056Z,0.91
2023-03-06T08:00:36.031Z,0.89
2023-03-06T08:01:36.047Z,0.93
2023-03-06T08:02:37.041Z,0.94
2023-03-06T08:03:36.066Z,0.94
2023-03-06T08:04:36.015Z,0.93
2023-03-06T08:05:36.003Z,0.97
2023-03-06T08:06:36.005Z,0.96
2023-03-06T08:07:35.974Z,0.98
2023-03-06T08:08:35.985Z,0.99
2023-03-06T08:09:35.979Z,1.01
2023-03-06T08:10:35.972Z,1.02
2023-03-06T08:11:36.086Z,1.00
2023-03-06T08:12:35.952Z,1.02
2023-03-06T08:13:35.990Z,1.03
2023-03-06T08:14:35.935Z,1.09
2023-03-06T08:15:35.923Z,1.09
2023-03-06T08:16:34.935Z,1.07
2023-03-06T08:17:35.902Z,1.07
2023-03-06T08:18:35.919Z,1.07
2023-03-06T08:19:35.924Z,1.10
2023-03-06T08:20:35.950Z,1.12
2023-03-06T08:21:35.997Z,1.11
2023-03-06T08:22:36.057Z,1.12
2023-03-06T08:24:36.174Z,1.15
2023-03-06T08:25:36.242Z,1.15
2023-03-06T08:26:36.299Z,1.17
2023-03-06T08:27:35.390Z,1.17
2023-03-06T08:28:36.419Z,1.18
2023-03-06T08:29:36.469Z,0.96
2023-03-06T08:30:35.518Z,0.80
2023-03-06T08:31:36.636Z,0.83
2023-03-06T08:32:36.724Z,0.92
2023-03-06T08:33:36.640Z,0.95
2023-03-06T08:34:36.717Z,0.90
2023-03-06T08:35:36.775Z,0.84
2023-03-06T08:36:36.791Z,0.85
2023-03-06T08:37:36.894Z,0.88
2023-03-06T08:38:35.872Z,0.87
2023-03-06T08:39:36.906Z,0.89
2023-03-06T08:40:35.911Z,0.89
2023-03-06T08:41:36.914Z,0.87
2023-03-06T08:42:36.931Z,0.88
2023-03-06T08:43:36.972Z,0.87
2023-03-06T08:44:36.936Z,0.87
2023-03-06T08:45:37.061Z,0.87
2023-03-06T08:46:36.926Z,0.86
2023-03-06T08:47:36.918Z,0.84
2023-03-06T08:48:36.036Z,0.85
2023-03-06T08:49:36.919Z,0.84
2023-03-06T08:50:36.938Z,0.88
2023-03-06T08:51:36.901Z,0.86
2023-03-06T08:52:35.906Z,0.87
2023-03-06T08:53:43.270Z,0.87
2023-03-06T08:54:36.907Z,0.87
2023-03-06T08:55:35.902Z,0.87
2023-03-06T08:56:36.895Z,0.87
2023-03-06T08:57:36.891Z,0.87
2023-03-06T08:58:35.875Z,0.87
2023-03-06T08:59:35.900Z,0.86
2023-03-06T09:00:36.881Z,0.86
2023-03-06T09:01:36.940Z,0.85
2023-03-06T09:02:36.895Z,0.84
2023-03-06T09:03:36.873Z,0.84
2023-03-06T09:04:36.836Z,0.82
2023-03-06T09:05:36.828Z,0.83
2023-03-06T09:06:36.828Z,0.82
2023-03-06T09:07:36.833Z,0.84
2023-03-06T09:10:36.881Z,0.79
2023-03-06T09:11:36.781Z,0.80
2023-03-06T09:12:47.518Z,0.79
2023-03-06T09:13:36.787Z,0.79
2023-03-06T09:14:35.754Z,0.79
2023-03-06T09:15:36.759Z,0.79
2023-03-06T09:16:35.807Z,0.79
2023-03-06T09:17:36.761Z,0.78
2023-03-06T09:18:36.770Z,0.76
2023-03-06T09:19:36.748Z,0.76
2023-03-06T09:31:36.652Z,0.71
2023-03-06T09:32:36.644Z,0.69
2023-03-06T09:33:36.623Z,0.71
2023-03-06T09:34:36.604Z,0.69
2023-03-06T09:35:36.658Z,0.68
2023-03-06T09:36:53.335Z,0.68
2023-03-06T09:37:36.585Z,0.68
2023-03-06T09:38:36.574Z,0.68
2023-03-06T09:39:36.562Z,0.68
2023-03-06T09:40:36.556Z,0.67
2023-03-06T09:41:36.593Z,0.67
2023-03-06T09:42:37.073Z,0.66
2023-03-06T09:43:36.547Z,0.66
2023-03-06T09:44:36.524Z,0.66
2023-03-06T09:45:36.521Z,0.66
2023-03-06T09:46:36.528Z,0.69
2023-03-06T09:47:36.528Z,0.71
2023-03-06T09:48:36.498Z,0.72
2023-03-06T09:49:36.499Z,0.78
2023-03-06T09:50:36.514Z,0.81
2023-03-06T09:51:36.467Z,0.82
2023-03-06T09:52:36.473Z,0.86
2023-03-06T09:53:36.464Z,0.83
2023-03-06T09:54:36.462Z,0.86
2023-03-06T09:55:36.467Z,0.86
2023-03-06T09:56:36.440Z,0.90
2023-03-06T09:57:36.460Z,0.88
2023-03-06T09:58:36.561Z,0.91
2023-03-06T09:59:36.416Z,0.93
2023-03-06T10:00:35.408Z,1.00
2023-03-06T10:01:35.396Z,1.01
2023-03-06T10:02:35.513Z,1.01
2023-03-06T10:03:36.413Z,1.01
2023-03-06T10:04:36.513Z,1.02
2023-03-06T10:05:36.365Z,1.03
2023-03-06T10:06:36.356Z,1.05
2023-03-06T10:07:36.340Z,1.03
2023-03-06T10:08:36.354Z,1.03
2023-03-06T10:09:35.369Z,1.04
2023-03-06T10:10:35.401Z,1.05
2023-03-06T10:11:36.481Z,1.07
2023-03-06T10:12:35.483Z,1.06
2023-03-06T10:13:36.536Z,1.05
2023-03-06T10:14:36.617Z,1.05
2023-03-06T10:15:36.651Z,1.07
2023-03-06T10:16:36.640Z,1.06
2023-03-06T10:17:35.682Z,1.08
2023-03-06T10:18:36.725Z,1.08
2023-03-06T10:19:36.789Z,1.11
2023-03-06T10:20:36.766Z,1.10
2023-03-06T10:21:36.814Z,1.09
2023-03-06T10:22:35.829Z,1.10
2023-03-06T10:23:36.873Z,1.12
2023-03-06T10:24:36.881Z,1.13
2023-03-06T10:25:36.896Z,1.13
2023-03-06T10:26:37.028Z,1.15
2023-03-06T10:27:36.950Z,1.13
2023-03-06T10:28:35.985Z,1.14
2023-03-06T10:29:38.491Z,1.15
2023-03-06T10:30:36.017Z,1.16
2023-03-06T10:31:37.048Z,1.17
2023-03-06T10:32:48.373Z,1.17
2023-03-06T10:33:37.058Z,1.17
2023-03-06T10:34:37.035Z,1.18
2023-03-06T10:35:37.149Z,1.19
2023-03-06T10:36:37.023Z,1.20
2023-03-06T10:37:36.008Z,1.22
2023-03-06T10:38:37.017Z,1.23
2023-03-06T10:39:36.014Z,1.23
2023-03-06T10:40:36.991Z,1.26
2023-03-06T10:41:36.981Z,1.28
2023-03-06T10:42:36.974Z,1.29
2023-03-06T10:43:36.975Z,1.29
2023-03-06T10:44:36.980Z,1.29
2023-03-06T10:45:48.641Z,1.30
2023-03-06T10:46:37.065Z,1.30
2023-03-06T10:47:36.936Z,1.30
2023-03-06T10:48:35.941Z,0.91
2023-03-06T10:49:37.065Z,0.87
2023-03-06T10:50:36.920Z,1.00
2023-03-06T10:52:35.922Z,1.02
2023-03-06T10:53:35.927Z,0.97
2023-03-06T10:54:36.089Z,0.94
2023-03-06T10:55:36.890Z,0.93
2023-03-06T10:56:36.889Z,0.93
2023-03-06T10:57:36.875Z,0.97
2023-03-06T10:59:36.873Z,0.99
2023-03-06T11:00:36.846Z,1.01
2023-03-06T11:01:36.891Z,1.04
2023-03-06T11:02:36.835Z,1.09
2023-03-06T11:03:36.904Z,1.13
2023-03-06T11:04:35.908Z,1.14
2023-03-06T11:05:36.922Z,1.16
2023-03-06T11:06:35.943Z,1.21
2023-03-06T11:07:37.011Z,1.28
2023-03-06T11:08:36.976Z,1.25
2023-03-06T11:09:37.022Z,1.23
2023-03-06T11:11:38.058Z,1.21
2023-03-06T11:12:37.074Z,1.21
2023-03-06T11:13:37.069Z,1.21
2023-03-06T11:14:37.112Z,1.20
2023-03-06T11:15:37.098Z,1.19
2023-03-06T11:16:37.119Z,1.21
2023-03-06T11:17:37.141Z,1.19
2023-03-06T11:18:37.136Z,1.19
2023-03-06T11:19:37.165Z,1.18
2023-03-06T11:20:50.420Z,1.16
2023-03-06T11:21:37.162Z,1.16
2023-03-06T11:22:37.157Z,1.17
2023-03-06T11:23:36.218Z,1.18
2023-03-06T11:24:37.146Z,1.19
2023-03-06T11:25:37.156Z,1.20
2023-03-06T11:26:37.144Z,1.21
2023-03-06T11:27:37.126Z,1.21
2023-03-06T11:28:37.120Z,1.22
2023-03-06T11:29:38.856Z,1.19
2023-03-06T11:30:37.099Z,1.19
2023-03-06T11:31:37.128Z,1.20
2023-03-06T11:32:36.145Z,1.20
2023-03-06T11:33:37.082Z,1.18
2023-03-06T11:34:37.094Z,1.19
2023-03-06T11:35:37.092Z,1.18
2023-03-06T11:36:37.056Z,1.16
2023-03-06T11:37:37.047Z,1.19
2023-03-06T11:38:37.057Z,1.19
2023-03-06T11:39:37.126Z,1.19
2023-03-06T11:40:36.025Z,1.17
2023-03-06T11:41:37.049Z,1.16
2023-03-06T11:42:37.008Z,1.14
2023-03-06T11:43:37.005Z,1.10
2023-03-06T11:44:37.002Z,1.13
2023-03-06T11:45:36.996Z,1.09
2023-03-06T11:46:37.020Z,1.09
2023-03-06T11:47:36.993Z,1.07
2023-03-06T11:48:37.001Z,1.07
2023-03-06T11:49:36.959Z,1.07
2023-03-06T11:50:36.950Z,1.04
2023-03-06T11:51:36.937Z,1.04
2023-03-06T11:52:36.948Z,1.00
2023-03-06T11:53:35.927Z,1.02
2023-03-06T11:54:36.933Z,0.98
2023-03-06T11:55:36.954Z,0.99
2023-03-06T11:56:35.899Z,0.98
2023-03-06T11:57:36.907Z,0.97
2023-03-06T11:58:36.892Z,0.94
2023-03-06T11:59:36.894Z,0.91
2023-03-06T12:00:36.885Z,0.89
2023-03-06T12:01:36.891Z,0.89
2023-03-06T12:02:36.857Z,0.89
2023-03-06T12:03:36.870Z,0.87
2023-03-06T12:04:36.852Z,0.86
2023-03-06T12:05:36.903Z,0.85
2023-03-06T12:06:36.829Z,0.82
2023-03-06T12:07:35.837Z,0.82
2023-03-06T12:08:36.840Z,0.80
2023-03-06T12:09:35.825Z,0.80
2023-03-06T12:10:36.815Z,0.78
2023-03-06T12:11:36.820Z,0.76
2023-03-06T12:12:36.787Z,0.77
2023-03-06T12:13:36.778Z,0.74
2023-03-06T12:14:36.767Z,0.72
2023-03-06T12:15:36.792Z,0.73
2023-03-06T12:16:35.829Z,0.72
2023-03-06T12:17:36.765Z,0.69
2023-03-06T12:18:36.759Z,0.69
2023-03-06T12:19:36.738Z,0.68
2023-03-06T12:20:36.723Z,0.68
2023-03-06T12:21:36.715Z,0.67
2023-03-06T12:22:36.725Z,0.65
2023-03-06T12:23:36.713Z,0.66
2023-03-06T12:24:36.702Z,0.66
2023-03-06T12:25:36.698Z,0.64
2023-03-06T12:26:36.735Z,0.64
2023-03-06T12:27:36.719Z,0.63
2023-03-06T12:28:36.664Z,0.63
2023-03-06T12:29:36.660Z,0.61
2023-03-06T12:30:35.649Z,0.62
2023-03-06T12:31:35.675Z,0.60
2023-03-06T12:32:36.741Z,0.60
2023-03-06T12:33:36.630Z,0.60
2023-03-06T12:34:36.622Z,0.58
2023-03-06T12:35:35.690Z,0.59
2023-03-06T12:36:36.642Z,0.58
2023-03-06T12:37:36.663Z,0.57
2023-03-06T12:38:36.669Z,0.58
2023-03-06T12:39:36.145Z,0.57
2023-03-06T12:40:36.706Z,0.57
2023-03-06T12:41:36.735Z,0.57
2023-03-06T12:42:36.754Z,0.58
2023-03-06T12:43:38.930Z,0.58
2023-03-06T12:44:36.801Z,0.58
2023-03-06T12:45:37.029Z,0.57
2023-03-06T12:46:35.757Z,0.56
2023-03-06T12:47:36.736Z,0.56
2023-03-06T12:48:36.725Z,0.56
2023-03-06T12:49:36.727Z,0.55
2023-03-06T12:50:36.734Z,0.54
2023-03-06T12:51:36.720Z,0.55
2023-03-06T13:02:36.666Z,0.50
2023-03-06T13:03:35.614Z,0.51
2023-03-06T13:06:41.983Z,0.52
2023-03-06T13:09:36.598Z,0.48
2023-03-06T14:27:37.681Z,1.88
2023-03-06T14:28:37.730Z,1.86
2023-03-06T14:29:37.779Z,1.88
2023-03-06T14:31:36.951Z,1.89
2023-03-06T14:32:36.956Z,1.90
2023-03-06T14:33:37.999Z,1.93
2023-03-06T14:34:38.053Z,1.92
2023-03-06T14:35:38.185Z,1.94
2023-03-06T14:36:38.122Z,1.95
2023-03-06T14:37:38.181Z,1.93
2023-03-06T14:38:38.212Z,1.99
2023-03-06T14:39:38.275Z,1.96
2023-03-06T14:40:38.297Z,1.99
2023-03-06T14:41:38.325Z,2.00
2023-03-06T14:42:38.374Z,2.02
2023-03-06T14:43:38.407Z,2.02
2023-03-06T14:44:38.454Z,2.08
2023-03-06T14:46:37.618Z,2.07
2023-03-06T14:47:38.558Z,2.03
2023-03-06T14:48:38.599Z,2.10
2023-03-06T14:49:38.614Z,2.15
2023-03-06T14:50:40.325Z,2.19
2023-03-06T14:51:38.658Z,2.23
2023-03-06T14:52:38.630Z,2.23
2023-03-06T14:53:37.632Z,2.22
2023-03-06T14:54:38.622Z,2.25
2023-03-06T14:55:37.631Z,2.27
2023-03-06T14:56:38.598Z,2.25
2023-03-06T14:57:38.585Z,2.25
2023-03-06T14:58:38.595Z,2.30
2023-03-06T14:59:38.576Z,2.30
2023-03-06T15:00:38.609Z,2.29
2023-03-06T15:01:38.648Z,2.31
2023-03-06T15:02:38.613Z,2.32
2023-03-06T15:03:37.555Z,2.34
2023-03-06T15:04:38.545Z,2.28
2023-03-06T15:05:38.548Z,2.26
2023-03-06T15:06:38.622Z,2.29
2023-03-06T15:07:37.549Z,2.28
2023-03-06T15:08:38.524Z,2.24
2023-03-06T15:09:37.506Z,2.30
2023-03-06T15:10:38.498Z,2.26
2023-03-06T15:11:38.485Z,2.28
2023-03-06T15:12:38.577Z,2.28
2023-03-06T15:13:38.474Z,2.24
2023-03-06T15:14:37.466Z,2.22
2023-03-06T15:15:37.470Z,2.23
2023-03-06T15:16:38.543Z,2.23
2023-03-06T15:17:38.553Z,2.21
2023-03-06T15:18:39.018Z,2.21
2023-03-06T15:19:38.659Z,2.21
2023-03-06T15:20:38.720Z,2.24
2023-03-06T15:21:38.790Z,2.22
2023-03-06T15:22:38.865Z,2.27
2023-03-06T15:23:37.957Z,2.27
2023-03-06T15:24:38.958Z,2.26
2023-03-06T15:25:38.014Z,2.24
2023-03-06T15:28:39.188Z,2.25
2023-03-06T15:29:39.253Z,2.28
2023-03-06T15:30:39.310Z,2.26
2023-03-06T15:31:39.400Z,2.27
2023-03-06T15:32:39.439Z,2.28
2023-03-06T15:33:39.452Z,2.31
2023-03-06T15:34:39.532Z,2.30
2023-03-06T15:35:39.620Z,2.34
2023-03-06T15:36:39.609Z,2.30
2023-03-06T15:37:38.656Z,2.30
2023-03-06T15:38:39.695Z,2.34
2023-03-06T15:39:39.778Z,2.34
2023-03-06T15:43:39.964Z,2.35
2023-03-06T15:44:38.995Z,2.39
2023-03-06T15:45:40.095Z,2.35
2023-03-06T15:46:40.098Z,2.36
2023-03-06T15:47:40.162Z,2.37
2023-03-06T15:48:39.208Z,2.41
2023-03-06T15:49:40.268Z,2.40
2023-03-06T15:50:40.440Z,2.38
2023-03-06T15:51:40.360Z,2.39
2023-03-06T15:52:40.392Z,2.39
2023-03-06T15:53:40.438Z,2.41
2023-03-06T15:54:40.504Z,2.43
2023-03-06T15:55:40.574Z,2.45
2023-03-06T15:56:39.588Z,2.43
2023-03-06T15:57:39.652Z,2.44
2023-03-06T15:58:40.737Z,2.45
2023-03-06T15:59:40.750Z,2.45
2023-03-06T16:00:40.810Z,2.47
2023-03-06T16:01:40.840Z,2.51
2023-03-06T16:02:40.881Z,2.50
2023-03-06T16:03:40.931Z,2.53
2023-03-06T16:04:40.988Z,2.51
2023-03-06T16:05:41.030Z,2.51
2023-03-06T16:06:41.083Z,2.50
2023-03-06T16:07:41.127Z,2.51
2023-03-06T16:08:40.169Z,2.55
2023-03-06T16:09:40.233Z,2.61
2023-03-06T16:10:41.297Z,2.58
2023-03-06T16:11:43.923Z,2.58
2023-03-06T16:12:40.340Z,2.70
2023-03-06T16:13:41.336Z,2.62
2023-03-06T16:14:40.338Z,2.62
2023-03-06T16:15:40.329Z,2.58
2023-03-06T16:16:41.453Z,2.50
2023-03-06T16:17:41.298Z,2.57
2023-03-06T16:18:41.283Z,2.59
2023-03-06T16:19:41.283Z,2.56
2023-03-06T16:20:41.284Z,2.52
2023-03-06T16:21:41.278Z,2.57
2023-03-06T16:22:41.256Z,2.58
2023-03-06T16:23:41.239Z,2.60
2023-03-06T16:24:41.245Z,2.59
2023-03-06T16:25:41.222Z,2.52
2023-03-06T16:26:41.223Z,2.54
2023-03-06T16:27:41.239Z,2.50
2023-03-06T16:28:41.222Z,2.57
2023-03-06T16:29:40.204Z,2.53
2023-03-06T16:31:59.556Z,0.50
2023-03-06T16:33:00.332Z,0.50
2023-03-06T16:34:00.259Z,0.50
2023-03-06T16:35:00.257Z,0.50
2023-03-06T16:35:59.268Z,0.50
2023-03-06T16:37:00.222Z,0.50
2023-03-06T16:38:00.256Z,0.50
2023-03-06T16:39:00.227Z,0.50
2023-03-06T16:40:00.216Z,0.50
2023-03-06T16:41:00.247Z,0.51
2023-03-06T16:41:59.216Z,0.50
2023-03-06T16:42:59.251Z,0.51
2023-03-06T16:44:00.181Z,0.50
2023-03-06T16:45:00.184Z,0.51
2023-03-06T16:46:00.195Z,0.51
2023-03-06T16:47:00.185Z,0.50
2023-03-06T16:48:00.456Z,0.50
2023-03-06T16:49:00.179Z,0.51
2023-03-06T16:50:00.240Z,0.51
2023-03-06T16:51:00.137Z,0.51
2023-03-06T16:52:00.122Z,0.50
2023-03-06T16:53:00.153Z,0.50
2023-03-06T16:54:00.117Z,0.51
2023-03-06T16:54:59.112Z,0.51
2023-03-06T16:56:00.176Z,0.51
2023-03-06T16:57:00.114Z,0.51
2023-03-06T16:58:00.129Z,0.51
2023-03-06T16:59:00.118Z,0.51
2023-03-06T16:59:59.063Z,0.50
2023-03-06T17:01:00.165Z,0.51
2023-03-06T17:02:00.095Z,0.51
2023-03-06T17:03:00.088Z,0.52
2023-03-06T17:04:00.044Z,0.53
2023-03-06T17:05:00.028Z,0.51
2023-03-06T17:06:00.040Z,0.51
2023-03-06T17:07:00.030Z,0.52
2023-03-06T17:08:00.027Z,0.50
2023-03-06T17:08:59.995Z,0.51
2023-03-06T17:09:58.998Z,0.51
2023-03-06T17:10:59.992Z,0.51
2023-03-06T17:11:58.982Z,0.52
2023-03-06T17:12:59.963Z,0.51
2023-03-06T17:14:00.025Z,0.51
2023-03-06T17:15:00.049Z,0.50
2023-03-06T17:16:00.188Z,0.50
2023-03-06T17:17:00.147Z,0.50
2023-03-06T17:18:00.229Z,0.51
2023-03-06T17:19:00.219Z,0.51
2023-03-06T17:20:00.270Z,0.51
2023-03-06T17:21:00.372Z,0.52
2023-03-06T17:22:00.406Z,0.50
2023-03-06T17:23:00.428Z,0.51
2023-03-06T17:24:00.474Z,0.52
2023-03-06T17:25:00.531Z,0.52
2023-03-06T17:26:00.616Z,0.51
2023-03-06T17:26:59.654Z,0.50
2023-03-06T17:28:00.707Z,0.51
2023-03-06T17:28:59.779Z,0.52
2023-03-06T17:30:00.826Z,0.50
2023-03-06T17:31:00.957Z,0.51
2023-03-06T17:32:00.945Z,0.50
2023-03-06T17:33:01.027Z,0.50
2023-03-06T17:34:01.044Z,0.50
2023-03-06T17:35:01.125Z,0.51
2023-03-06T17:36:00.175Z,0.51
2023-03-06T17:37:01.303Z,0.51
2023-03-06T17:38:00.337Z,0.51
2023-03-06T17:39:02.105Z,0.51
2023-03-06T17:40:00.436Z,0.50
2023-03-06T17:41:01.506Z,0.50
2023-03-06T17:42:01.554Z,0.50
2023-03-06T17:43:01.606Z,0.50
2023-03-06T17:44:00.695Z,0.51
2023-03-06T17:45:01.730Z,0.50
2023-03-06T17:46:01.899Z,0.52
2023-03-06T17:47:01.853Z,0.51
2023-03-06T17:48:01.918Z,0.51
2023-03-06T17:49:01.943Z,0.51
2023-03-06T17:50:02.042Z,0.50
2023-03-06T17:51:02.144Z,0.52
2023-03-06T17:52:01.159Z,0.50
2023-03-06T17:53:02.159Z,0.50
2023-03-06T17:54:02.222Z,0.51
2023-03-06T17:55:02.273Z,0.50
2023-03-06T17:56:02.402Z,0.51
2023-03-06T17:57:02.408Z,0.51
2023-03-06T17:58:02.393Z,0.50
2023-03-06T17:59:02.433Z,0.51
2023-03-06T18:00:02.486Z,0.52
2023-03-06T18:01:02.553Z,0.50
2023-03-06T18:02:02.753Z,0.50
2023-03-06T18:03:02.672Z,0.52
2023-03-06T18:04:02.690Z,0.51
2023-03-06T18:05:01.825Z,0.52
2023-03-06T18:06:02.783Z,0.51
2023-03-06T18:07:02.806Z,0.52
2023-03-06T18:08:02.856Z,0.50
2023-03-06T18:09:02.832Z,0.51
2023-03-06T18:10:02.847Z,0.51
2023-03-06T18:11:02.870Z,0.51
2023-03-06T18:12:02.893Z,0.51
2023-03-06T18:13:02.931Z,0.51
2023-03-06T18:14:05.380Z,0.52
2023-03-06T18:15:01.939Z,0.52
2023-03-06T18:16:02.969Z,0.51
2023-03-06T18:17:02.903Z,0.52
2023-03-06T18:18:02.887Z,0.52
2023-03-06T18:19:01.912Z,0.52
2023-03-06T18:20:02.947Z,0.52
2023-03-06T18:21:02.863Z,0.51
2023-03-06T18:22:02.868Z,0.52
2023-03-06T18:23:02.869Z,0.52
2023-03-06T18:24:02.835Z,0.51
2023-03-06T18:25:01.877Z,0.51
2023-03-06T18:26:02.867Z,0.51
2023-03-06T18:27:02.825Z,0.51
2023-03-06T18:28:02.805Z,0.50
2023-03-06T18:29:02.811Z,0.52
2023-03-06T18:30:02.796Z,0.51
2023-03-06T18:31:02.786Z,0.52
2023-03-06T18:32:02.948Z,0.51
2023-03-06T18:33:02.759Z,0.51
2023-03-06T18:34:02.752Z,0.50
2023-03-06T18:35:02.777Z,0.52
2023-03-06T18:36:02.747Z,0.51
2023-03-06T18:37:02.771Z,0.52
2023-03-06T18:38:02.732Z,0.51
2023-03-06T18:39:02.721Z,0.52
2023-03-06T18:40:01.750Z,0.51
2023-03-06T18:41:02.712Z,0.52
2023-03-06T18:42:02.685Z,0.50
2023-03-06T18:43:02.710Z,0.50
2023-03-06T18:44:02.864Z,0.52
2023-03-06T18:45:02.722Z,0.51
2023-03-06T18:46:02.727Z,0.51
2023-03-06T18:47:02.721Z,0.51
2023-03-06T18:48:02.645Z,0.51
2023-03-06T18:49:02.653Z,0.52
2023-03-06T18:50:02.760Z,0.50
2023-03-06T18:51:01.668Z,0.51
2023-03-06T18:52:02.635Z,0.51
2023-03-06T18:53:02.612Z,0.52
2023-03-06T18:54:02.615Z,0.52
2023-03-06T18:55:02.681Z,0.51
2023-03-06T18:56:02.618Z,0.51
2023-03-06T18:57:01.602Z,0.52
2023-03-06T18:58:02.559Z,0.51
2023-03-06T18:59:01.616Z,0.51
2023-03-06T19:00:01.594Z,0.51
2023-03-06T19:01:02.570Z,0.51
2023-03-06T19:02:02.566Z,0.51
2023-03-06T19:03:01.569Z,0.51
2023-03-06T19:04:02.584Z,0.51
2023-03-06T19:05:01.519Z,0.50
2023-03-06T19:06:02.519Z,0.51
2023-03-06T19:07:02.535Z,0.51
2023-03-06T19:08:02.554Z,0.51
2023-03-06T19:09:02.488Z,0.50
2023-03-06T19:10:02.479Z,0.50
2023-03-06T19:11:02.483Z,0.50
2023-03-06T19:12:02.481Z,0.51
2023-03-06T19:13:02.486Z,0.51
2023-03-06T19:14:02.479Z,0.52
2023-03-06T19:15:02.458Z,0.50
2023-03-06T19:16:02.445Z,0.50
2023-03-06T19:17:01.456Z,0.51
2023-03-06T19:18:02.422Z,0.52
2023-03-06T19:19:02.459Z,0.51
2023-03-06T19:20:02.480Z,0.51
2023-03-06T19:21:02.392Z,0.51
2023-03-06T19:22:02.460Z,0.53
2023-03-06T19:23:02.417Z,0.53
2023-03-06T19:24:02.383Z,0.50
2023-03-06T19:25:03.913Z,0.53
2023-03-06T19:26:02.524Z,0.53
2023-03-06T19:27:02.512Z,0.52
2023-03-06T19:28:02.536Z,0.50
2023-03-06T19:29:02.504Z,0.52
2023-03-06T19:30:02.504Z,0.51
2023-03-06T19:31:01.506Z,0.51
2023-03-06T19:32:02.761Z,0.51
2023-03-06T19:33:02.526Z,0.52
2023-03-06T19:34:02.505Z,0.50
2023-03-06T19:35:01.510Z,0.52
2023-03-06T19:36:02.541Z,0.50
2023-03-06T19:37:01.498Z,0.51
2023-03-06T19:38:02.507Z,0.51
2023-03-06T19:39:02.533Z,0.52
2023-03-06T19:40:02.496Z,0.50
2023-03-06T19:41:02.515Z,0.50
2023-03-06T19:42:02.508Z,0.50
2023-03-06T19:43:02.510Z,0.52
2023-03-06T19:44:02.545Z,0.52
2023-03-06T19:45:02.518Z,0.51
2023-03-06T19:46:02.555Z,0.51
2023-03-06T19:47:02.542Z,0.50
2023-03-06T19:48:02.534Z,0.51
2023-03-06T19:49:01.558Z,0.51
2023-03-06T19:50:02.534Z,0.52
2023-03-06T19:51:01.522Z,0.50
2023-03-06T19:52:02.542Z,0.52
2023-03-06T19:53:02.552Z,0.50
2023-03-06T19:54:01.555Z,0.51
2023-03-06T19:55:02.600Z,0.52
2023-03-06T19:56:01.578Z,0.51
2023-03-06T19:57:06.486Z,0.52
2023-03-06T19:58:02.574Z,0.52
2023-03-06T19:59:02.576Z,0.52
2023-03-06T20:00:02.551Z,0.51
2023-03-06T20:01:02.620Z,0.52
2023-03-06T20:02:01.559Z,0.51
2023-03-06T20:03:02.597Z,0.51
2023-03-06T20:04:02.531Z,0.52
2023-03-06T20:05:01.534Z,0.50
2023-03-06T20:06:02.526Z,0.52
2023-03-06T20:07:02.512Z,0.51
2023-03-06T20:08:02.519Z,0.51
2023-03-06T20:09:02.505Z,0.52
2023-03-06T20:10:02.508Z,0.52
2023-03-06T20:11:02.501Z,0.51
2023-03-06T20:12:02.484Z,0.51
2023-03-06T20:13:03.087Z,0.51
2023-03-06T20:14:02.474Z,0.52
2023-03-06T20:15:01.452Z,0.50
2023-03-06T20:16:02.513Z,0.52
2023-03-06T20:17:02.434Z,0.52
2023-03-06T20:18:02.439Z,0.52
2023-03-06T20:19:02.099Z,0.52
2023-03-06T20:20:01.411Z,0.52
2023-03-06T20:21:02.407Z,0.51
2023-03-06T20:22:02.413Z,0.52
2023-03-06T20:23:02.399Z,0.51
2023-03-06T20:24:02.398Z,0.52
2023-03-06T20:25:02.403Z,0.52
2023-03-06T20:26:02.412Z,0.50
2023-03-06T20:27:02.466Z,0.51
2023-03-06T20:28:03.438Z,0.52
2023-03-06T20:29:01.450Z,0.52
2023-03-06T20:30:02.468Z,0.52
2023-03-06T20:31:02.518Z,0.52
2023-03-06T20:32:02.572Z,0.51
2023-03-06T20:33:01.488Z,0.51
2023-03-06T20:34:02.518Z,0.52
2023-03-06T20:35:02.521Z,0.50
2023-03-06T20:36:02.579Z,0.52
2023-03-06T20:37:02.556Z,0.52
2023-03-06T20:38:01.564Z,0.52
2023-03-06T20:39:02.597Z,0.51
2023-03-06T20:40:02.664Z,0.51
2023-03-06T20:41:02.615Z,0.52
2023-03-06T20:42:01.637Z,0.52
2023-03-06T20:43:02.709Z,0.52
2023-03-06T20:44:01.676Z,0.52
2023-03-06T20:45:02.699Z,0.52
2023-03-06T20:46:02.786Z,0.51
2023-03-06T20:47:01.733Z,0.51
2023-03-06T20:48:01.730Z,0.52
2023-03-06T20:49:02.766Z,0.51
2023-03-06T20:50:02.768Z,0.52
2023-03-06T20:51:02.791Z,0.52
2023-03-06T20:52:02.820Z,0.52
2023-03-06T20:53:02.833Z,0.51
2023-03-06T20:54:02.840Z,0.51
2023-03-06T20:55:02.889Z,0.53
2023-03-06T20:56:02.910Z,0.52
2023-03-06T20:57:02.915Z,0.52
2023-03-06T20:58:02.005Z,0.51
2023-03-06T20:59:03.022Z,0.51
2023-03-06T21:00:03.006Z,0.50
2023-03-06T21:01:03.231Z,0.51
2023-03-06T21:02:04.172Z,0.51
2023-03-06T21:03:03.071Z,0.52
2023-03-06T21:04:02.064Z,0.51
2023-03-06T21:05:03.141Z,0.52
2023-03-06T21:06:03.136Z,0.51
2023-03-06T21:07:03.140Z,0.50
2023-03-06T21:08:03.175Z,0.52
2023-03-06T21:09:02.201Z,0.53
2023-03-06T21:10:03.232Z,0.52
2023-03-06T21:11:03.248Z,0.52
2023-03-06T21:12:03.279Z,0.52
2023-03-06T21:13:03.302Z,0.52
2023-03-06T21:14:03.319Z,0.52
2023-03-06T21:15:03.366Z,0.52
2023-03-06T21:16:03.454Z,0.52
2023-03-06T21:17:03.425Z,0.51
2023-03-06T21:18:02.427Z,0.51
2023-03-06T21:19:03.435Z,0.51